Overseas Reymar — V7HN9 — position and weather

sailwx.info

Track history (hours):
 
Tides and Currents Weather Stations Pressure Air Temp Water Temp Dewpoint Dewpoint Depression Visibility Wind Speed Wind Dir Waves Ship Positions

Overseas Reymar

Last reported at 2017-Nov-23 15:37 UTC. Time now 2017-Dec-14 15:12 UTC.
Position N 29°04' W 116°25'.
Warning: this ship's position is 20 days out of date.

Length 229 m; draft 8.3 m.

Type: Tanker. MMSI: 538002271.

Date/timePositionNaut miles runAvg speedWind from/ knotsBaromVisibWave heightAir tempDewpointWater temp
2017-Nov-23 15:37N 29°04' W 116°25'212.0
2017-Nov-23 15:28N 29°06' W 116°26'20412.8
2017-Nov-22 23:27N 32°19' W 117°42'612.5
2017-Nov-22 23:00N 32°25' W 117°44'712.5
2017-Nov-22 22:29N 32°31' W 117°46'612.7
2017-Nov-22 22:01N 32°37' W 117°49'712.9
2017-Nov-22 21:30N 32°43' W 117°51'613.0
2017-Nov-22 21:00N 32°49' W 117°54'713.0
2017-Nov-22 20:30N 32°55' W 117°56'612.7
2017-Nov-22 20:00N 33°01' W 117°59'611.8
2017-Nov-22 19:31N 33°06' W 118°01'  
2017-Nov-18 14:34N 33°38' W 118°10'1 8.1
2017-Nov-18 14:24N 33°36' W 118°10'3 6.6
2017-Nov-18 13:57N 33°34' W 118°09'510.4
2017-Nov-18 13:30N 33°30' W 118°06'4 7.5
2017-Nov-18 13:00N 33°27' W 118°03'1 0.8
2017-Nov-18 12:00N 33°26' W 118°03'3 4.3
2017-Nov-18 11:16N 33°23' W 118°04'310.8
2017-Nov-18 11:00N 33°20' W 118°03'611.7
2017-Nov-18 10:30N 33°15' W 118°01'612.0
2017-Nov-18 10:00N 33°09' W 117°59'612.2
2017-Nov-18 09:31N 33°03' W 117°57'612.2
2017-Nov-18 09:00N 32°57' W 117°55'611.9
2017-Nov-18 08:30N 32°51' W 117°54'4 8.9
2017-Nov-18 08:00N 32°47' W 117°53'2 3.2
2017-Nov-18 07:31N 32°46' W 117°51'4 7.9
2017-Nov-18 07:00N 32°43' W 117°50'611.4
2017-Nov-18 06:30N 32°37' W 117°49'117 5.0
2017-Nov-17 07:11N 30°43' W 118°19'0 0.5
2017-Nov-17 07:00N 30°43' W 118°19'2 0.7
2017-Nov-17 04:04N 30°45' W 118°21'1 0.6
2017-Nov-17 02:48N 30°45' W 118°21'0 0.5
2017-Nov-17 02:30N 30°46' W 118°21'1 0.6
2017-Nov-17 01:14N 30°46' W 118°22'0 0.5
2017-Nov-17 00:47N 30°46' W 118°22'0 0.4
2017-Nov-17 00:30N 30°46' W 118°22'0 0.3
2017-Nov-16 23:32N 30°47' W 118°23'0 0.3
2017-Nov-16 23:30N 30°47' W 118°23'0 0.3
2017-Nov-16 22:59N 30°47' W 118°23'0 0.4
2017-Nov-16 22:25N 30°47' W 118°23'3 0.3
2017-Nov-16 12:26N 30°46' W 118°26'1 0.5
2017-Nov-16 11:11N 30°46' W 118°27'1 0.4
2017-Nov-16 08:08N 30°47' W 118°28'0 0.5
2017-Nov-16 07:24N 30°48' W 118°28'0 0.6
2017-Nov-16 07:00N 30°48' W 118°29'7 0.8
2017-Nov-15 21:28N 30°51' W 118°36'0 0.8
2017-Nov-15 20:58N 30°51' W 118°37'3 0.5
2017-Nov-15 14:54N 30°50' W 118°40'1 0.4
2017-Nov-15 12:43N 30°51' W 118°41'0 0.5
2017-Nov-15 12:20N 30°51' W 118°41'0 0.6
2017-Nov-15 12:00N 30°51' W 118°42'0 0.6
2017-Nov-15 11:30N 30°51' W 118°42'0 0.7
2017-Nov-15 11:00N 30°52' W 118°42'1 0.7
2017-Nov-15 09:28N 30°52' W 118°43'0 0.7
2017-Nov-15 09:00N 30°53' W 118°43'1 0.8
2017-Nov-15 07:46N 30°53' W 118°44'0 0.9
2017-Nov-15 07:30N 30°53' W 118°45'0 0.8
2017-Nov-15 06:55N 30°54' W 118°45'1 0.9
2017-Nov-15 05:46N 30°54' W 118°46'0 0.9
2017-Nov-15 05:30N 30°55' W 118°46'23 6.1
2017-Nov-15 01:41N 31°10' W 118°26'510.5
2017-Nov-15 01:14N 31°13' W 118°22'310.6
2017-Nov-15 01:00N 31°15' W 118°20'810.4
2017-Nov-15 00:15N 31°21' W 118°13'310.1
2017-Nov-14 23:58N 31°23' W 118°11'510.4
2017-Nov-14 23:30N 31°27' W 118°08'610.7
2017-Nov-14 22:56N 31°32' W 118°03'510.9
2017-Nov-14 22:30N 31°35' W 118°00'4 6.7
2017-Nov-14 21:57N 31°38' W 117°57'1 0.9
2017-Nov-14 21:21N 31°38' W 117°58'2 0.9
2017-Nov-14 18:42N 31°39' W 118°00'0 2.3
2017-Nov-14 18:29N 31°39' W 118°00'4 8.6
2017-Nov-14 18:00N 31°40' W 117°55'510.2
2017-Nov-14 17:30N 31°42' W 117°50'610.1
2017-Nov-14 16:52N 31°43' W 117°42'2 4.2
2017-Nov-14 16:28N 31°43' W 117°40'0 0.8
2017-Nov-14 16:00N 31°43' W 117°41'2 1.3
2017-Nov-14 14:14N 31°45' W 117°42'0 1.2
2017-Nov-14 14:00N 31°45' W 117°43'1 1.3
2017-Nov-14 13:29N 31°46' W 117°43'1 1.2
2017-Nov-14 13:00N 31°46' W 117°44'1 1.3
2017-Nov-14 12:30N 31°46' W 117°45'1 1.3
2017-Nov-14 12:00N 31°46' W 117°45'1 1.3
2017-Nov-14 11:30N 31°47' W 117°46'1 1.4
2017-Nov-14 11:00N 31°47' W 117°47'1 1.4
2017-Nov-14 10:27N 31°47' W 117°47'1 1.3
2017-Nov-14 10:00N 31°48' W 117°48'1 1.4
2017-Nov-14 09:30N 31°48' W 117°49'1 1.2
2017-Nov-14 09:00N 31°48' W 117°49'1 1.2
2017-Nov-14 08:30N 31°48' W 117°50'1 1.2
2017-Nov-14 07:49N 31°49' W 117°51'0 1.2
2017-Nov-14 07:29N 31°49' W 117°51'1 1.3
2017-Nov-14 07:00N 31°49' W 117°52'1 1.1
2017-Nov-14 06:30N 31°50' W 117°53'2 1.1
2017-Nov-14 04:20N 31°50' W 117°55'1 1.1
2017-Nov-14 03:01N 31°51' W 117°57'0 0.5
2017-Nov-14 03:00N 31°51' W 117°57'1 1.2
2017-Nov-14 02:30N 31°51' W 117°57'1 1.1
2017-Nov-14 02:00N 31°52' W 117°58'1 1.2
2017-Nov-14 01:30N 31°52' W 117°58'1 1.3
2017-Nov-14 01:00N 31°52' W 117°59'0 1.0
2017-Nov-14 00:31N 31°52' W 117°60'1 1.3
2017-Nov-14 00:00N 31°52' W 117°60'5 9.6
2017-Nov-13 23:30N 31°47' W 118°01'611.4
2017-Nov-13 22:59N 31°41' W 118°03'511.2
2017-Nov-13 22:30N 31°36' W 118°04'611.3
2017-Nov-13 21:59N 31°30' W 118°06'  
Track history (hours):
 
Tides and Currents Weather Stations Pressure Air Temp Water Temp Dewpoint Dewpoint Depression Visibility Wind Speed Wind Dir Waves Ship Positions

Overseas Reymar

Last reported at 2017-Nov-23 15:37 UTC. Time now 2017-Dec-14 15:12 UTC.
Position N 29°04' W 116°25'.
Warning: this ship's position is 20 days out of date.

Length 229 m; draft 8.3 m.

Type: Tanker. MMSI: 538002271.

Date/timePositionNaut miles runAvg speedWind from/ knotsBaromVisibWave heightAir tempDewpointWater temp
2017-Nov-23 15:37N 29°04' W 116°25'212.0
2017-Nov-23 15:28N 29°06' W 116°26'20412.8
2017-Nov-22 23:27N 32°19' W 117°42'612.5
2017-Nov-22 23:00N 32°25' W 117°44'712.5
2017-Nov-22 22:29N 32°31' W 117°46'612.7
2017-Nov-22 22:01N 32°37' W 117°49'712.9
2017-Nov-22 21:30N 32°43' W 117°51'613.0
2017-Nov-22 21:00N 32°49' W 117°54'713.0
2017-Nov-22 20:30N 32°55' W 117°56'612.7
2017-Nov-22 20:00N 33°01' W 117°59'611.8
2017-Nov-22 19:31N 33°06' W 118°01'  
2017-Nov-18 14:34N 33°38' W 118°10'1 8.1
2017-Nov-18 14:24N 33°36' W 118°10'3 6.6
2017-Nov-18 13:57N 33°34' W 118°09'510.4
2017-Nov-18 13:30N 33°30' W 118°06'4 7.5
2017-Nov-18 13:00N 33°27' W 118°03'1 0.8
2017-Nov-18 12:00N 33°26' W 118°03'3 4.3
2017-Nov-18 11:16N 33°23' W 118°04'310.8
2017-Nov-18 11:00N 33°20' W 118°03'611.7
2017-Nov-18 10:30N 33°15' W 118°01'612.0
2017-Nov-18 10:00N 33°09' W 117°59'612.2
2017-Nov-18 09:31N 33°03' W 117°57'612.2
2017-Nov-18 09:00N 32°57' W 117°55'611.9
2017-Nov-18 08:30N 32°51' W 117°54'4 8.9
2017-Nov-18 08:00N 32°47' W 117°53'2 3.2
2017-Nov-18 07:31N 32°46' W 117°51'4 7.9
2017-Nov-18 07:00N 32°43' W 117°50'611.4
2017-Nov-18 06:30N 32°37' W 117°49'117 5.0
2017-Nov-17 07:11N 30°43' W 118°19'0 0.5
2017-Nov-17 07:00N 30°43' W 118°19'2 0.7
2017-Nov-17 04:04N 30°45' W 118°21'1 0.6
2017-Nov-17 02:48N 30°45' W 118°21'0 0.5
2017-Nov-17 02:30N 30°46' W 118°21'1 0.6
2017-Nov-17 01:14N 30°46' W 118°22'0 0.5
2017-Nov-17 00:47N 30°46' W 118°22'0 0.4
2017-Nov-17 00:30N 30°46' W 118°22'0 0.3
2017-Nov-16 23:32N 30°47' W 118°23'0 0.3
2017-Nov-16 23:30N 30°47' W 118°23'0 0.3
2017-Nov-16 22:59N 30°47' W 118°23'0 0.4
2017-Nov-16 22:25N 30°47' W 118°23'3 0.3
2017-Nov-16 12:26N 30°46' W 118°26'1 0.5
2017-Nov-16 11:11N 30°46' W 118°27'1 0.4
2017-Nov-16 08:08N 30°47' W 118°28'0 0.5
2017-Nov-16 07:24N 30°48' W 118°28'0 0.6
2017-Nov-16 07:00N 30°48' W 118°29'7 0.8
2017-Nov-15 21:28N 30°51' W 118°36'0 0.8
2017-Nov-15 20:58N 30°51' W 118°37'3 0.5
2017-Nov-15 14:54N 30°50' W 118°40'1 0.4
2017-Nov-15 12:43N 30°51' W 118°41'0 0.5
2017-Nov-15 12:20N 30°51' W 118°41'0 0.6
2017-Nov-15 12:00N 30°51' W 118°42'0 0.6
2017-Nov-15 11:30N 30°51' W 118°42'0 0.7
2017-Nov-15 11:00N 30°52' W 118°42'1 0.7
2017-Nov-15 09:28N 30°52' W 118°43'0 0.7
2017-Nov-15 09:00N 30°53' W 118°43'1 0.8
2017-Nov-15 07:46N 30°53' W 118°44'0 0.9
2017-Nov-15 07:30N 30°53' W 118°45'0 0.8
2017-Nov-15 06:55N 30°54' W 118°45'1 0.9
2017-Nov-15 05:46N 30°54' W 118°46'0 0.9
2017-Nov-15 05:30N 30°55' W 118°46'23 6.1
2017-Nov-15 01:41N 31°10' W 118°26'510.5
2017-Nov-15 01:14N 31°13' W 118°22'310.6
2017-Nov-15 01:00N 31°15' W 118°20'810.4
2017-Nov-15 00:15N 31°21' W 118°13'310.1
2017-Nov-14 23:58N 31°23' W 118°11'510.4
2017-Nov-14 23:30N 31°27' W 118°08'610.7
2017-Nov-14 22:56N 31°32' W 118°03'510.9
2017-Nov-14 22:30N 31°35' W 118°00'4 6.7
2017-Nov-14 21:57N 31°38' W 117°57'1 0.9
2017-Nov-14 21:21N 31°38' W 117°58'2 0.9
2017-Nov-14 18:42N 31°39' W 118°00'0 2.3
2017-Nov-14 18:29N 31°39' W 118°00'4 8.6
2017-Nov-14 18:00N 31°40' W 117°55'510.2
2017-Nov-14 17:30N 31°42' W 117°50'610.1
2017-Nov-14 16:52N 31°43' W 117°42'2 4.2
2017-Nov-14 16:28N 31°43' W 117°40'0 0.8
2017-Nov-14 16:00N 31°43' W 117°41'2 1.3
2017-Nov-14 14:14N 31°45' W 117°42'0 1.2
2017-Nov-14 14:00N 31°45' W 117°43'1 1.3
2017-Nov-14 13:29N 31°46' W 117°43'1 1.2
2017-Nov-14 13:00N 31°46' W 117°44'1 1.3
2017-Nov-14 12:30N 31°46' W 117°45'1 1.3
2017-Nov-14 12:00N 31°46' W 117°45'1 1.3
2017-Nov-14 11:30N 31°47' W 117°46'1 1.4
2017-Nov-14 11:00N 31°47' W 117°47'1 1.4
2017-Nov-14 10:27N 31°47' W 117°47'1 1.3
2017-Nov-14 10:00N 31°48' W 117°48'1 1.4
2017-Nov-14 09:30N 31°48' W 117°49'1 1.2
2017-Nov-14 09:00N 31°48' W 117°49'1 1.2
2017-Nov-14 08:30N 31°48' W 117°50'1 1.2
2017-Nov-14 07:49N 31°49' W 117°51'0 1.2
2017-Nov-14 07:29N 31°49' W 117°51'1 1.3
2017-Nov-14 07:00N 31°49' W 117°52'1 1.1
2017-Nov-14 06:30N 31°50' W 117°53'2 1.1
2017-Nov-14 04:20N 31°50' W 117°55'1 1.1
2017-Nov-14 03:01N 31°51' W 117°57'0 0.5
2017-Nov-14 03:00N 31°51' W 117°57'1 1.2
2017-Nov-14 02:30N 31°51' W 117°57'1 1.1
2017-Nov-14 02:00N 31°52' W 117°58'1 1.2
2017-Nov-14 01:30N 31°52' W 117°58'1 1.3
2017-Nov-14 01:00N 31°52' W 117°59'0 1.0
2017-Nov-14 00:31N 31°52' W 117°60'1 1.3
2017-Nov-14 00:00N 31°52' W 117°60'5 9.6
2017-Nov-13 23:30N 31°47' W 118°01'611.4
2017-Nov-13 22:59N 31°41' W 118°03'511.2
2017-Nov-13 22:30N 31°36' W 118°04'611.3
2017-Nov-13 21:59N 31°30' W 118°06'  

Dump ship's entire track history